createdAt,value
2023-01-30T00:00:08.045Z,4.15
2023-01-30T00:02:56.949Z,4.07
2023-01-30T00:05:25.824Z,3.99
2023-01-30T00:07:53.558Z,3.92
2023-01-30T00:10:25.805Z,3.83
2023-01-30T00:12:54.856Z,3.77
2023-01-30T00:15:24.219Z,3.73
2023-01-30T00:17:53.030Z,3.70
2023-01-30T00:20:23.005Z,3.71
2023-01-30T00:23:00.478Z,3.78
2023-01-30T00:25:31.785Z,3.86
2023-01-30T00:28:01.629Z,3.97
2023-01-30T00:30:31.475Z,4.03
2023-01-30T00:33:00.222Z,4.05
2023-01-30T00:35:33.241Z,4.06
2023-01-30T00:38:01.748Z,4.06
2023-01-30T00:40:30.152Z,4.04
2023-01-30T00:43:16.761Z,3.99
2023-01-30T00:46:04.774Z,3.93
2023-01-30T00:48:33.827Z,3.89
2023-01-30T00:51:03.223Z,3.85
2023-01-30T00:53:31.061Z,3.77
2023-01-30T00:55:59.862Z,3.71
2023-01-30T00:58:28.411Z,3.64
2023-01-30T01:00:56.482Z,3.58
2023-01-30T01:03:24.743Z,3.51
2023-01-30T01:05:55.582Z,3.46
2023-01-30T01:08:28.379Z,3.42
2023-01-30T01:10:56.651Z,3.39
2023-01-30T01:13:27.580Z,3.39
2023-01-30T01:15:57.785Z,3.39
2023-01-30T01:18:28.304Z,3.39
2023-01-30T01:20:56.324Z,3.39
2023-01-30T01:23:24.357Z,3.39
2023-01-30T01:25:52.423Z,3.38
2023-01-30T01:28:22.263Z,3.32
2023-01-30T01:30:50.330Z,3.23
2023-01-30T01:33:18.674Z,3.16
2023-01-30T01:35:47.960Z,3.12
2023-01-30T01:38:15.829Z,3.10
2023-01-30T01:41:05.141Z,3.10
2023-01-30T01:44:11.095Z,3.12
2023-01-30T01:46:59.978Z,3.16
2023-01-30T01:49:35.776Z,3.19
2023-01-30T01:52:17.711Z,3.23
2023-01-30T01:55:07.587Z,3.30
2023-01-30T01:57:49.861Z,3.35
2023-01-30T02:00:23.989Z,3.39
2023-01-30T02:02:59.457Z,3.48
2023-01-30T02:05:37.191Z,3.54
2023-01-30T02:08:38.806Z,3.55
2023-01-30T02:11:17.400Z,3.54
2023-01-30T02:13:48.040Z,3.60
2023-01-30T02:16:16.730Z,3.58
2023-01-30T02:18:47.156Z,3.59
2023-01-30T02:21:36.535Z,3.61
2023-01-30T02:25:07.401Z,3.64
2023-01-30T02:28:12.821Z,3.65
2023-01-30T02:31:05.273Z,3.63
2023-01-30T02:34:14.407Z,3.65
2023-01-30T02:37:26.984Z,3.72
2023-01-30T02:40:17.976Z,3.69
2023-01-30T02:43:45.371Z,3.69
2023-01-30T02:46:46.630Z,3.67
2023-01-30T02:49:46.212Z,3.66
2023-01-30T02:52:19.711Z,3.66
2023-01-30T02:54:50.379Z,3.68
2023-01-30T02:57:26.678Z,3.66
2023-01-30T03:00:04.025Z,3.63
2023-01-30T03:03:40.737Z,3.62
2023-01-30T03:06:17.287Z,3.70
2023-01-30T03:09:06.436Z,3.72
2023-01-30T03:12:12.537Z,3.74
2023-01-30T03:15:08.764Z,3.79
2023-01-30T03:17:44.600Z,3.79
2023-01-30T03:20:15.478Z,3.81
2023-01-30T03:22:43.219Z,3.78
2023-01-30T03:25:29.183Z,3.73
2023-01-30T03:28:02.255Z,3.67
2023-01-30T03:30:30.724Z,3.64
2023-01-30T03:32:58.474Z,3.59
2023-01-30T03:35:27.945Z,3.53
2023-01-30T03:37:56.004Z,3.47
2023-01-30T03:40:25.158Z,3.41
2023-01-30T03:42:52.881Z,3.35
2023-01-30T03:45:20.955Z,3.29
2023-01-30T03:47:48.953Z,3.24
2023-01-30T03:50:17.028Z,3.18
2023-01-30T03:52:45.147Z,3.20
2023-01-30T03:55:13.563Z,3.16
2023-01-30T03:57:41.346Z,3.12
2023-01-30T04:00:14.459Z,3.08
2023-01-30T04:02:42.287Z,3.03
2023-01-30T04:05:10.960Z,3.02
2023-01-30T04:07:38.838Z,3.08
2023-01-30T04:10:09.512Z,3.18
2023-01-30T04:12:38.678Z,3.31
2023-01-30T04:15:11.368Z,3.45
2023-01-30T04:17:41.469Z,3.65
2023-01-30T04:20:11.783Z,3.75
2023-01-30T04:22:41.329Z,3.82
2023-01-30T04:25:09.725Z,3.88
2023-01-30T04:27:40.248Z,3.95
2023-01-30T04:30:09.728Z,3.96
2023-01-30T04:32:37.912Z,3.95
2023-01-30T04:35:08.053Z,3.92
2023-01-30T04:37:38.362Z,3.91
2023-01-30T04:40:07.401Z,3.95
2023-01-30T04:42:35.460Z,3.90
2023-01-30T04:45:04.483Z,3.88
2023-01-30T04:47:32.399Z,3.82
2023-01-30T04:50:00.188Z,3.75
2023-01-30T04:52:29.167Z,3.65
2023-01-30T04:54:57.006Z,3.59
2023-01-30T04:57:25.235Z,3.54
2023-01-30T04:59:53.136Z,3.53
2023-01-30T05:02:23.087Z,3.55
2023-01-30T05:04:52.137Z,3.60
2023-01-30T05:07:21.801Z,3.66
2023-01-30T05:09:49.747Z,3.68
2023-01-30T05:12:17.482Z,3.64
2023-01-30T05:14:48.534Z,3.61
2023-01-30T05:17:18.528Z,3.59
2023-01-30T05:19:46.616Z,3.56
2023-01-30T05:22:15.653Z,3.52
2023-01-30T05:24:44.388Z,3.58
2023-01-30T05:27:13.301Z,3.58
2023-01-30T05:29:41.555Z,3.58
2023-01-30T05:32:16.527Z,3.59
2023-01-30T05:34:45.193Z,3.61
2023-01-30T05:37:12.944Z,3.67
2023-01-30T05:39:40.804Z,3.73
2023-01-30T05:42:09.435Z,3.76
2023-01-30T05:44:37.549Z,3.77
2023-01-30T05:47:05.235Z,3.76
2023-01-30T05:49:34.532Z,3.70
2023-01-30T05:52:03.296Z,3.67
2023-01-30T05:54:31.581Z,3.65
2023-01-30T05:57:00.864Z,3.59
2023-01-30T05:59:29.387Z,3.53
2023-01-30T06:01:57.183Z,3.50
2023-01-30T06:04:26.735Z,3.47
2023-01-30T06:06:54.716Z,3.42
2023-01-30T06:09:22.705Z,3.39
2023-01-30T06:11:53.359Z,3.39
2023-01-30T06:14:23.669Z,3.42
2023-01-30T06:16:52.116Z,3.51
2023-01-30T06:19:20.919Z,3.55
2023-01-30T06:21:49.057Z,3.56
2023-01-30T06:24:20.062Z,3.59
2023-01-30T06:26:47.897Z,3.61
2023-01-30T06:29:15.825Z,3.60
2023-01-30T06:31:44.756Z,3.64
2023-01-30T06:34:13.257Z,3.69
2023-01-30T06:36:41.976Z,3.70
2023-01-30T06:39:09.919Z,3.67
2023-01-30T06:41:37.636Z,3.65
2023-01-30T06:44:05.676Z,3.63
2023-01-30T06:46:33.541Z,3.61
2023-01-30T06:49:02.259Z,3.58
2023-01-30T06:51:32.577Z,3.58
2023-01-30T06:54:01.045Z,3.55
2023-01-30T06:56:29.553Z,3.48
2023-01-30T06:58:57.257Z,3.48
2023-01-30T07:01:26.912Z,3.55
2023-01-30T07:03:56.456Z,3.59
2023-01-30T07:06:30.344Z,3.63
2023-01-30T07:09:00.543Z,3.61
2023-01-30T07:11:28.657Z,3.61
2023-01-30T07:13:57.904Z,3.63
2023-01-30T07:16:31.031Z,3.68
2023-01-30T07:19:01.208Z,3.72
2023-01-30T07:21:31.789Z,3.80
2023-01-30T07:23:59.563Z,3.85
2023-01-30T07:26:29.825Z,3.90
2023-01-30T07:28:58.928Z,3.89
2023-01-30T07:31:26.742Z,3.92
2023-01-30T07:33:54.484Z,3.95
2023-01-30T07:36:22.320Z,3.99
2023-01-30T07:38:51.182Z,4.03
2023-01-30T07:41:18.840Z,4.05
2023-01-30T07:43:51.342Z,4.05
2023-01-30T07:46:19.591Z,4.09
2023-01-30T07:48:47.498Z,4.10
2023-01-30T07:51:15.227Z,4.14
2023-01-30T07:53:45.229Z,4.19
2023-01-30T07:56:19.556Z,4.22
2023-01-30T07:58:51.457Z,4.19
2023-01-30T08:01:19.618Z,4.20
2023-01-30T08:03:49.431Z,4.24
2023-01-30T08:06:17.611Z,4.27
2023-01-30T08:08:45.560Z,4.28
2023-01-30T08:11:15.971Z,4.26
2023-01-30T08:13:44.538Z,4.26
2023-01-30T08:16:15.721Z,4.26
2023-01-30T08:18:44.245Z,4.28
2023-01-30T08:21:12.766Z,4.29
2023-01-30T08:23:40.987Z,4.30
2023-01-30T08:26:09.030Z,4.33
2023-01-30T08:28:36.876Z,4.32
2023-01-30T08:31:15.187Z,4.34
2023-01-30T08:33:44.393Z,4.35
2023-01-30T08:36:15.000Z,4.41
2023-01-30T08:38:43.891Z,4.45
2023-01-30T08:41:11.654Z,4.48
2023-01-30T08:43:40.082Z,4.50
2023-01-30T08:46:09.178Z,4.54
2023-01-30T08:48:49.472Z,4.61
2023-01-30T08:51:19.533Z,4.76
2023-01-30T08:53:48.026Z,4.92
2023-01-30T08:56:16.170Z,5.06
2023-01-30T08:58:45.826Z,5.12
2023-01-30T09:01:14.679Z,5.15
2023-01-30T09:03:43.246Z,5.24
2023-01-30T09:06:11.750Z,5.27
2023-01-30T09:08:39.573Z,5.28
2023-01-30T09:11:07.319Z,5.35
2023-01-30T09:13:35.831Z,5.42
2023-01-30T09:16:06.747Z,5.47
2023-01-30T09:18:43.375Z,5.54
2023-01-30T09:21:14.272Z,5.66
2023-01-30T09:23:42.099Z,5.78
2023-01-30T09:26:10.566Z,5.87
2023-01-30T09:28:39.311Z,5.87
2023-01-30T09:31:07.485Z,5.88
2023-01-30T09:33:35.375Z,5.88
2023-01-30T09:36:03.555Z,5.89
2023-01-30T09:38:32.985Z,5.87
2023-01-30T09:41:22.298Z,5.82
2023-01-30T09:44:22.855Z,5.83
2023-01-30T09:47:28.276Z,5.90
2023-01-30T09:50:23.993Z,5.93
2023-01-30T09:53:38.021Z,5.96
2023-01-30T09:56:08.034Z,6.00
2023-01-30T09:58:54.487Z,6.05
2023-01-30T10:01:53.974Z,6.12
2023-01-30T10:04:29.712Z,6.18
2023-01-30T10:07:36.665Z,6.27
2023-01-30T10:10:31.572Z,6.48
2023-01-30T10:13:43.741Z,6.65
2023-01-30T10:16:20.223Z,6.72
2023-01-30T10:19:01.692Z,6.72
2023-01-30T10:21:41.047Z,6.72
2023-01-30T10:24:50.356Z,6.79
2023-01-30T10:27:22.653Z,6.88
2023-01-30T10:29:57.205Z,6.87
2023-01-30T10:32:51.595Z,6.81
2023-01-30T10:35:28.921Z,6.81
2023-01-30T10:38:29.154Z,6.85
2023-01-30T10:41:34.256Z,6.80
2023-01-30T10:44:18.555Z,6.70
2023-01-30T10:46:55.247Z,6.60
2023-01-30T10:49:56.761Z,6.50
2023-01-30T10:53:11.127Z,6.50
2023-01-30T10:55:49.823Z,6.67
2023-01-30T10:58:48.769Z,6.79
2023-01-30T11:01:45.953Z,6.91
2023-01-30T11:04:31.810Z,7.01
2023-01-30T11:07:02.320Z,7.08
2023-01-30T11:09:48.279Z,7.18
2023-01-30T11:12:16.851Z,7.24
2023-01-30T11:15:00.638Z,7.30
2023-01-30T11:17:45.672Z,7.37
2023-01-30T11:20:24.195Z,7.40
2023-01-30T11:23:05.785Z,7.47
2023-01-30T11:25:56.684Z,7.48
2023-01-30T11:28:48.461Z,7.53
2023-01-30T11:31:40.475Z,7.57
2023-01-30T11:34:19.010Z,7.59
2023-01-30T11:36:49.706Z,7.58
2023-01-30T11:39:18.856Z,7.58
2023-01-30T11:42:05.050Z,7.59
2023-01-30T11:44:37.168Z,7.59
2023-01-30T11:47:17.023Z,7.61
2023-01-30T11:50:09.983Z,7.66
2023-01-30T11:52:44.338Z,7.67
2023-01-30T11:55:17.286Z,7.66
2023-01-30T11:57:54.234Z,7.70
2023-01-30T12:00:27.439Z,7.71
2023-01-30T12:03:02.369Z,7.72
2023-01-30T12:05:42.515Z,7.75
2023-01-30T12:08:42.411Z,7.77
2023-01-30T12:11:45.515Z,7.75
2023-01-30T12:14:38.697Z,7.71
2023-01-30T12:17:44.716Z,7.70
2023-01-30T12:20:49.465Z,7.64
2023-01-30T12:23:41.416Z,7.63
2023-01-30T12:26:29.763Z,7.63
2023-01-30T12:29:30.019Z,7.60
2023-01-30T12:32:35.663Z,7.52
2023-01-30T12:35:17.705Z,7.51
2023-01-30T12:38:19.318Z,7.45
2023-01-30T12:41:24.179Z,7.35
2023-01-30T12:44:27.905Z,7.29
2023-01-30T12:47:29.499Z,7.23
2023-01-30T12:50:25.698Z,7.20
2023-01-30T12:53:20.667Z,7.17
2023-01-30T12:56:22.173Z,7.15
2023-01-30T12:59:21.643Z,7.13
2023-01-30T13:02:28.829Z,7.04
2023-01-30T13:05:23.103Z,7.01
2023-01-30T13:08:09.479Z,7.00
2023-01-30T13:10:51.806Z,6.96
2023-01-30T13:13:43.187Z,6.95
2023-01-30T13:16:42.041Z,6.94
2023-01-30T13:19:41.079Z,6.90
2023-01-30T13:22:58.851Z,6.83
2023-01-30T13:25:36.377Z,6.79
2023-01-30T13:28:26.129Z,6.80
2023-01-30T13:30:57.170Z,6.74
2023-01-30T13:33:38.112Z,6.70
2023-01-30T13:36:25.296Z,6.67
2023-01-30T13:39:07.064Z,6.62
2023-01-30T13:41:44.141Z,6.69
2023-01-30T13:44:40.854Z,6.65
2023-01-30T13:48:01.470Z,6.60
2023-01-30T13:51:16.955Z,6.51
2023-01-30T13:54:11.098Z,6.42
2023-01-30T13:57:19.825Z,6.40
2023-01-30T14:00:18.846Z,6.36
2023-01-30T14:03:08.489Z,6.29
2023-01-30T14:05:52.387Z,6.24
2023-01-30T14:08:47.589Z,6.15
2023-01-30T14:11:39.339Z,6.06
2023-01-30T14:14:28.225Z,5.96
2023-01-30T14:17:16.150Z,5.89
2023-01-30T14:19:55.248Z,5.86
2023-01-30T14:22:37.367Z,5.82
2023-01-30T14:25:30.719Z,5.90
2023-01-30T14:28:04.643Z,5.92
2023-01-30T14:30:58.117Z,5.90
2023-01-30T14:33:26.122Z,5.90
2023-01-30T14:35:55.090Z,5.96
2023-01-30T14:38:22.879Z,5.94
2023-01-30T14:41:00.397Z,5.93
2023-01-30T14:43:43.910Z,5.90
2023-01-30T14:46:32.329Z,5.97
2023-01-30T14:49:19.547Z,6.06
2023-01-30T14:51:49.745Z,5.99
2023-01-30T14:54:20.664Z,5.92
2023-01-30T14:57:17.022Z,5.85
2023-01-30T15:00:18.561Z,5.84
2023-01-30T15:02:54.112Z,5.79
2023-01-30T15:05:41.022Z,5.72
2023-01-30T15:08:22.561Z,5.63
2023-01-30T15:11:11.223Z,5.58
2023-01-30T15:13:55.783Z,5.55
2023-01-30T15:16:57.893Z,5.56
2023-01-30T15:19:49.284Z,5.58
2023-01-30T15:23:00.017Z,5.57
2023-01-30T15:26:07.832Z,5.48
2023-01-30T15:29:10.715Z,5.46
2023-01-30T15:31:38.550Z,5.41
2023-01-30T15:34:20.844Z,5.37
2023-01-30T15:36:48.857Z,5.26
2023-01-30T15:39:28.213Z,5.18
2023-01-30T15:42:08.405Z,5.10
2023-01-30T15:45:09.706Z,5.06
2023-01-30T15:48:00.177Z,4.98
2023-01-30T15:50:27.989Z,4.86
2023-01-30T15:52:58.338Z,4.78
2023-01-30T15:55:37.506Z,4.71
2023-01-30T15:58:16.196Z,4.62
2023-01-30T16:00:54.991Z,4.54
2023-01-30T16:03:36.788Z,4.41
2023-01-30T16:06:07.771Z,4.31
2023-01-30T16:08:36.867Z,4.24
2023-01-30T16:11:06.124Z,4.21
2023-01-30T16:13:36.048Z,4.21
2023-01-30T16:16:16.279Z,4.25
2023-01-30T16:18:56.874Z,4.28
2023-01-30T16:21:40.219Z,4.32
2023-01-30T16:24:20.309Z,4.38
2023-01-30T16:26:53.587Z,4.36
2023-01-30T16:29:26.295Z,4.32
2023-01-30T16:31:56.020Z,4.35
2023-01-30T16:34:37.287Z,4.36
2023-01-30T16:37:26.375Z,4.46
2023-01-30T16:40:23.001Z,4.49
2023-01-30T16:43:26.101Z,4.53
2023-01-30T16:46:14.297Z,4.56
2023-01-30T16:48:43.989Z,4.56
2023-01-30T16:51:22.716Z,4.54
2023-01-30T16:54:00.926Z,4.53
2023-01-30T16:56:31.926Z,4.49
2023-01-30T16:59:02.096Z,4.50
2023-01-30T17:01:41.783Z,4.42
2023-01-30T17:04:22.222Z,4.35
2023-01-30T17:06:58.222Z,4.26
2023-01-30T17:09:42.725Z,4.18
2023-01-30T17:12:31.743Z,4.07
2023-01-30T17:15:14.742Z,4.01
2023-01-30T17:17:44.219Z,4.03
2023-01-30T17:20:16.617Z,4.03
2023-01-30T17:22:53.707Z,3.95
2023-01-30T17:25:35.845Z,3.89
2023-01-30T17:28:07.929Z,3.81
2023-01-30T17:30:36.873Z,3.72
2023-01-30T17:33:05.910Z,3.68
2023-01-30T17:35:34.153Z,3.62
2023-01-30T17:38:05.812Z,3.56
2023-01-30T17:40:38.287Z,3.49
2023-01-30T17:43:09.691Z,3.40
2023-01-30T17:45:37.879Z,3.36
2023-01-30T17:48:06.695Z,3.38
2023-01-30T17:50:37.073Z,3.36
2023-01-30T17:53:05.573Z,3.29
2023-01-30T17:55:35.598Z,3.30
2023-01-30T17:58:04.110Z,3.32
2023-01-30T18:00:31.986Z,3.33
2023-01-30T18:03:00.140Z,3.36
2023-01-30T18:05:28.025Z,3.37
2023-01-30T18:07:58.531Z,3.35
2023-01-30T18:10:27.483Z,3.34
2023-01-30T18:12:57.686Z,3.35
2023-01-30T18:15:28.369Z,3.33
2023-01-30T18:17:57.472Z,3.31
2023-01-30T18:20:25.203Z,3.32
2023-01-30T18:22:53.711Z,3.33
2023-01-30T18:25:22.091Z,3.33
2023-01-30T18:27:50.608Z,3.29
2023-01-30T18:30:21.340Z,3.27
2023-01-30T18:32:53.980Z,3.25
2023-01-30T18:35:24.719Z,3.25
2023-01-30T18:37:52.716Z,3.21
2023-01-30T18:40:21.385Z,3.11
2023-01-30T18:42:49.803Z,3.10
2023-01-30T18:45:17.623Z,3.02
2023-01-30T18:47:50.445Z,2.98
2023-01-30T18:50:18.964Z,2.95
2023-01-30T18:52:48.513Z,2.98
2023-01-30T18:55:18.689Z,2.98
2023-01-30T18:57:48.330Z,2.98
2023-01-30T19:00:21.650Z,3.00
2023-01-30T19:02:53.894Z,2.94
2023-01-30T19:05:22.769Z,2.92
2023-01-30T19:07:50.934Z,2.95
2023-01-30T19:10:21.602Z,2.92
2023-01-30T19:13:09.848Z,2.88
2023-01-30T19:15:38.124Z,2.85
2023-01-30T19:18:09.441Z,2.79
2023-01-30T19:20:38.025Z,2.76
2023-01-30T19:23:05.798Z,2.70
2023-01-30T19:25:34.860Z,2.64
2023-01-30T19:28:03.308Z,2.60
2023-01-30T19:30:31.809Z,2.55
2023-01-30T19:33:02.288Z,2.51
2023-01-30T19:35:32.770Z,2.50
2023-01-30T19:38:04.306Z,2.44
2023-01-30T19:40:33.271Z,2.39
2023-01-30T19:43:11.020Z,2.33
2023-01-30T19:45:44.779Z,2.33
2023-01-30T19:48:13.624Z,2.31
2023-01-30T19:50:43.080Z,2.32
2023-01-30T19:53:10.974Z,2.35
2023-01-30T19:55:38.748Z,2.34
2023-01-30T19:58:06.552Z,2.33
2023-01-30T20:00:37.737Z,2.40
2023-01-30T20:03:05.809Z,2.42
2023-01-30T20:05:34.444Z,2.43
2023-01-30T20:08:02.357Z,2.44
2023-01-30T20:10:30.109Z,2.48
2023-01-30T20:12:58.017Z,2.49
2023-01-30T20:15:25.929Z,2.51
2023-01-30T20:17:56.386Z,2.49
2023-01-30T20:20:26.520Z,2.47
2023-01-30T20:22:56.674Z,2.39
2023-01-30T20:25:25.600Z,2.34
2023-01-30T20:27:54.528Z,2.38
2023-01-30T20:30:24.697Z,2.39
2023-01-30T20:32:55.140Z,2.38
2023-01-30T20:35:22.993Z,2.41
2023-01-30T20:37:51.016Z,2.47
2023-01-30T20:40:20.223Z,2.44
2023-01-30T20:42:49.326Z,2.49
2023-01-30T20:45:17.336Z,2.50
2023-01-30T20:47:45.808Z,2.45
2023-01-30T20:50:14.241Z,2.41
2023-01-30T20:52:43.117Z,2.36
2023-01-30T20:55:11.925Z,2.32
2023-01-30T20:57:44.949Z,2.25
2023-01-30T21:00:14.028Z,2.20
2023-01-30T21:02:42.742Z,2.17
2023-01-30T21:05:13.316Z,2.14
2023-01-30T21:07:41.482Z,2.12
2023-01-30T21:10:12.623Z,2.09
2023-01-30T21:12:43.140Z,2.10
2023-01-30T21:15:13.131Z,2.08
2023-01-30T21:17:43.682Z,2.02
2023-01-30T21:20:15.876Z,1.97
2023-01-30T21:22:45.303Z,1.93
2023-01-30T21:25:14.808Z,1.90
2023-01-30T21:27:44.599Z,1.91
2023-01-30T21:30:13.064Z,1.96
2023-01-30T21:32:43.282Z,2.05
2023-01-30T21:35:11.148Z,2.11
2023-01-30T21:37:58.050Z,2.14
2023-01-30T21:40:45.465Z,2.16
2023-01-30T21:43:18.723Z,2.21
2023-01-30T21:45:48.946Z,2.20
2023-01-30T21:48:17.394Z,2.25
2023-01-30T21:50:45.085Z,2.28
2023-01-30T21:53:12.752Z,2.22
2023-01-30T21:55:40.536Z,2.17
2023-01-30T21:58:08.335Z,2.22
2023-01-30T22:00:38.875Z,2.20
2023-01-30T22:03:07.234Z,2.22
2023-01-30T22:05:36.717Z,2.18
2023-01-30T22:08:05.842Z,2.18
2023-01-30T22:10:33.731Z,2.13
2023-01-30T22:13:02.097Z,2.07
2023-01-30T22:15:33.890Z,1.99
2023-01-30T22:18:03.618Z,1.94
2023-01-30T22:20:33.139Z,1.88
2023-01-30T22:23:03.206Z,1.84
2023-01-30T22:25:31.105Z,1.84
2023-01-30T22:27:59.164Z,1.85
2023-01-30T22:30:26.947Z,1.92
2023-01-30T22:32:56.694Z,1.97
2023-01-30T22:35:24.829Z,2.03
2023-01-30T22:37:52.978Z,2.08
2023-01-30T22:40:21.367Z,2.14
2023-01-30T22:42:49.292Z,2.17
2023-01-30T22:45:17.562Z,2.25
2023-01-30T22:47:45.899Z,2.33
2023-01-30T22:50:13.852Z,2.38
2023-01-30T22:52:41.750Z,2.37
2023-01-30T22:55:12.284Z,2.35
2023-01-30T22:57:40.553Z,2.30
2023-01-30T23:00:10.066Z,2.23
2023-01-30T23:02:38.257Z,2.19
2023-01-30T23:05:07.524Z,2.15
2023-01-30T23:07:35.830Z,2.08
2023-01-30T23:10:06.356Z,2.03
2023-01-30T23:12:53.906Z,2.03
2023-01-30T23:15:23.508Z,1.94
2023-01-30T23:18:09.842Z,1.87
2023-01-30T23:20:38.060Z,1.81
2023-01-30T23:23:08.245Z,1.74
2023-01-30T23:25:42.573Z,1.69
2023-01-30T23:28:10.622Z,1.65
2023-01-30T23:30:39.298Z,1.65
2023-01-30T23:33:07.607Z,1.65
2023-01-30T23:35:35.642Z,1.68
2023-01-30T23:38:19.314Z,1.66
2023-01-30T23:40:50.167Z,1.66
2023-01-30T23:43:19.123Z,1.64
2023-01-30T23:45:54.689Z,1.57
2023-01-30T23:48:23.739Z,1.49
2023-01-30T23:50:51.455Z,1.43
2023-01-30T23:53:21.496Z,1.40
2023-01-30T23:55:54.981Z,1.35
2023-01-30T23:58:24.551Z,1.30
